Thursday, February 22, 2018, 12:12 PM EST
Back to Local

KCON, Concord, Concord Municipal Airport

Location: Concord, NH, United States Lat: 43.195
Local Time: 12:12 PM EST (17:12 GMT) Lon: -71.501
Time Zone: US/Eastern Elev: 344 ft

Show me the last for .
Show Coded

Time T Td Feel RH Dir Speed Gust Alt SLP Vis Weather Sky Remarks
2018-02-22 11:51 38 19 33 46 340° 6 - 30.65 30.66 10 OVC070 None
2018-02-22 10:51 38 19 32 46 310° 8 - 30.67 30.68 10 OVC100 None
2018-02-22 09:51 38 19 32 46 340° 8 - 30.65 30.66 10 SCT110 None
2018-02-22 08:51 37 19 31 47 310° 8 - 30.65 30.66 10 OVC100 None
2018-02-22 07:51 36 19 30 49 340° 8 - 30.64 30.64 10 OVC100 None
2018-02-22 06:51 36 19 29 49 340° 9 - 30.62 30.63 10 OVC095 6-hr Min Temp (7am): 36.0°F
6-hr Max Temp (7am): 41.0°F
2018-02-22 05:51 36 19 28 49 310° 10 - 30.59 30.60 10 OVC090 None
2018-02-22 04:51 37 19 26 47 330° 13 21 30.58 30.58 10 OVC090 None
2018-02-22 03:51 37 21 28 51 340° 14 - 30.55 30.55 10 OVC085 None
2018-02-22 02:51 38 23 30 54 350° 13 - 30.55 30.55 10 OVC080 None
2018-02-22 01:51 39 26 33 59 350° 8 - 30.52 30.52 10 OVC080 None
2018-02-22 00:51 41 29 33 61 340° 14 - 30.49 30.49 10 OVC080 6-hr Min Temp (1am): 41.0°F
6-hr Max Temp (1am): 57.0°F
2018-02-21 23:51 43 28 34 55 310° 17 24 30.46 30.46 10 SCT075 Pressure rising rapidly
24-hr Min Temp (12am): 33.1°F
24-hr Max Temp (12am): 73.9°F
2018-02-21 22:51 44 29 41 55 330° 6 - 30.38 30.39 10 SCT100 None
2018-02-21 21:51 47 29 43 49 320° 9 - 30.36 30.37 10 CLR None
2018-02-21 20:51 51 36 - 56 320° 9 22 30.34 30.35 10 OVC036 None
2018-02-21 19:51 53 43 - 68 310° 17 23 30.29 30.30 10 OVC032 None
2018-02-21 19:22 54 46 - 74 330° 12 - 30.28 - 10 SCT023 OVC030 None
2018-02-21 18:51 57 50 - 77 340° 18 25 30.25 30.26 10 BKN022 OVC030 Pressure rising rapidly
6-hr Min Temp (7pm): 57.0°F
6-hr Max Temp (7pm): 73.9°F
2018-02-21 18:42 60 52 - 74 340° 13 23 30.24 - 10 FEW022 BKN027 OVC055 Pressure rising rapidly
2018-02-21 17:51 65 53 - 65 300° 20 28 30.16 30.17 10 OVC048 Peak wind: 29 mph (26 kts) from 340° at 28 min
2018-02-21 16:51 71 55 76 56 270° 8 - 30.08 30.09 10 SCT065 BKN085 None
2018-02-21 15:51 74 55 77 51 250° 8 - 30.06 30.06 10 FEW070 SCT085 None
2018-02-21 14:51 73 55 77 53 240° 13 - 30.04 30.04 10 CLR None
2018-02-21 13:51 72 56 76 57 260° 6 17 30.05 30.05 10 CLR None
2018-02-21 12:51 68 55 - 63 220° 7 - 30.07 30.07 10 CLR 6-hr Min Temp (1pm): 33.1°F
6-hr Max Temp (1pm): 68.0°F

Support USWX by starting your Amazon purchase here.